메인 페이지
METAR-TAF:

METAR-TAF

공항 :

바그다드 국제공항

바그다드, 이라크

위도: 33-15-45N, 경도: 44-14-04E, 고도: 35m

현재 날씨관측

예보는 31분 전, 11:30시(UTC)에 발표되었습니다.
동북동8kt
온도 30°C
습도 35%
기압 1013 hPa
시정 10km 이상
고도 3000ft 상공 구름 보통
고도 10000ft 상공 구름 보통

METAR: ORBI 201130Z 07008KT 9999 SCT030 SCT100 30/13 Q1013

시각: 15:01 (12:01 UTC)

예보

예보는 2 시간 1분 전, 10:00시(UTC)에 발표되었습니다.
예보 대상 시간: 20일 12시부터 21일 12시까지 (UTC)
남동8kt
시정: 8000m
고도 3000ft 상공 구름 조금
고도 5000ft 상공 구름 보통
일시적
21일 04시부터 21일 08시까지 (UTC)
약한소나기
전환 중
21일 06시부터 21일 08시까지 (UTC)
동남동18kt

TAF: ORBI 201000Z 2012/2112 14008KT 8000 FEW030 SCT050 TEMPO 2104/2108 -SHRA BECMG 2106/2108 12018KT

4,000개 이상의 공항 관측 자료 및 예보 (METAR 및 TAF 보고).

지도상에서 검색 가능한 기상관측소가 노란 점과 빨간 점으로 표시되어 있습니다.

기상관측소 명을 보려면 표시 위로 마우스를 이동하세요.

날씨 관측과 예보를 보려면 클릭하세요.

지도 변경 : 확대하려면 엑스 표시가 있는 녹색 버튼, 축소하려면 빼기 표시가 있는 녹색 버튼, 다음 페이지의 지도를 보려면 녹색 화살표를 클릭하세요.


METAR-TAF: